createdAt,value
2023-02-03T00:00:39.457Z,98551.28
2023-02-03T00:03:08.090Z,98557.00
2023-02-03T00:05:35.644Z,98547.19
2023-02-03T00:08:05.252Z,98548.66
2023-02-03T00:10:33.846Z,98538.78
2023-02-03T00:13:00.777Z,98552.44
2023-02-03T00:15:27.477Z,98542.13
2023-02-03T00:17:54.137Z,98553.44
2023-02-03T00:20:20.806Z,98550.59
2023-02-03T00:22:47.537Z,98548.31
2023-02-03T00:25:14.409Z,98548.97
2023-02-03T00:27:42.035Z,98538.94
2023-02-03T00:30:09.622Z,98537.88
2023-02-03T00:32:37.248Z,98540.69
2023-02-03T00:35:04.779Z,98546.13
2023-02-03T00:37:34.453Z,98541.16
2023-02-03T00:40:02.103Z,98534.72
2023-02-03T00:42:29.636Z,98548.59
2023-02-03T00:44:56.279Z,98535.75
2023-02-03T00:47:22.951Z,98545.53
2023-02-03T00:49:50.151Z,98543.34
2023-02-03T00:52:16.868Z,98543.34
2023-02-03T00:54:43.578Z,98540.81
2023-02-03T00:57:10.242Z,98539.09
2023-02-03T00:59:36.907Z,98541.28
2023-02-03T01:02:03.611Z,98543.09
2023-02-03T01:04:30.929Z,98543.78
2023-02-03T01:06:57.948Z,98538.59
2023-02-03T01:09:25.124Z,98540.66
2023-02-03T01:11:52.755Z,98533.69
2023-02-03T01:14:20.287Z,98534.63
2023-02-03T01:16:46.973Z,98537.06
2023-02-03T01:19:13.616Z,98531.84
2023-02-03T01:21:40.259Z,98535.34
2023-02-03T01:24:06.906Z,98532.84
2023-02-03T01:26:33.623Z,98537.84
2023-02-03T01:29:00.403Z,98537.75
2023-02-03T01:31:28.844Z,98543.91
2023-02-03T01:34:00.220Z,98549.94
2023-02-03T01:36:43.402Z,98548.16
2023-02-03T01:44:47.690Z,98567.06
2023-02-03T01:47:20.288Z,98568.28
2023-02-03T01:49:51.613Z,98575.06
2023-02-03T01:52:18.496Z,98578.56
2023-02-03T01:54:46.109Z,98579.31
2023-02-03T01:57:16.715Z,98574.84
2023-02-03T01:59:43.450Z,98582.72
2023-02-03T02:02:10.133Z,98585.28
2023-02-03T02:05:04.803Z,98579.97
2023-02-03T02:07:32.288Z,98581.69
2023-02-03T02:09:58.955Z,98579.88
2023-02-03T02:12:25.613Z,98561.94
2023-02-03T02:14:52.239Z,98564.25
2023-02-03T02:17:48.957Z,98555.06
2023-02-03T02:20:32.654Z,98568.44
2023-02-03T02:23:46.868Z,98569.38
2023-02-03T02:26:42.720Z,98559.91
2023-02-03T02:29:27.153Z,98569.03
2023-02-03T02:32:05.959Z,98568.19
2023-02-03T02:35:00.402Z,98562.88
2023-02-03T02:37:51.029Z,98564.47
2023-02-03T02:40:37.927Z,98566.28
2023-02-03T02:43:21.318Z,98575.66
2023-02-03T02:45:52.882Z,98569.38
2023-02-03T02:48:27.099Z,98574.19
2023-02-03T02:50:55.299Z,98574.38
2023-02-03T02:53:24.624Z,98572.47
2023-02-03T02:55:51.789Z,98575.03
2023-02-03T02:58:18.508Z,98568.78
2023-02-03T03:00:45.155Z,98568.56
2023-02-03T03:03:21.792Z,98568.78
2023-02-03T03:06:30.753Z,98564.50
2023-02-03T03:09:12.284Z,98557.94
2023-02-03T03:11:45.516Z,98552.13
2023-02-03T03:14:12.173Z,98561.13
2023-02-03T03:16:39.262Z,98553.94
2023-02-03T03:22:13.228Z,98555.63
2023-02-03T03:24:50.980Z,98556.47
2023-02-03T03:27:22.155Z,98556.81
2023-02-03T03:29:51.495Z,98567.50
2023-02-03T03:32:18.237Z,98564.97
2023-02-03T03:34:44.896Z,98569.44
2023-02-03T03:37:29.100Z,98559.88
2023-02-03T03:39:57.623Z,98558.06
2023-02-03T03:42:32.017Z,98562.25
2023-02-03T03:45:18.554Z,98554.22
2023-02-03T03:47:55.632Z,98552.88
2023-02-03T03:50:26.007Z,98547.88
2023-02-03T03:52:53.166Z,98549.88
2023-02-03T03:55:19.846Z,98561.56
2023-02-03T03:57:59.274Z,98557.00
2023-02-03T04:00:26.764Z,98562.84
2023-02-03T04:02:54.396Z,98574.56
2023-02-03T04:05:22.374Z,98557.31
2023-02-03T04:07:49.046Z,98549.47
2023-02-03T04:10:38.359Z,98557.72
2023-02-03T04:13:05.192Z,98545.63
2023-02-03T04:15:31.887Z,98543.69
2023-02-03T04:17:58.541Z,98533.06
2023-02-03T04:20:29.472Z,98533.84
2023-02-03T04:22:56.658Z,98528.97
2023-02-03T04:25:29.707Z,98530.44
2023-02-03T04:31:08.956Z,98520.03
2023-02-03T04:33:49.911Z,98518.22
2023-02-03T04:39:40.638Z,98506.94
2023-02-03T04:47:41.526Z,98497.56
2023-02-03T04:50:08.500Z,98497.38
2023-02-03T04:52:35.183Z,98484.41
2023-02-03T04:55:01.867Z,98479.34
2023-02-03T04:57:28.495Z,98498.47
2023-02-03T04:59:55.146Z,98485.09
2023-02-03T05:02:22.439Z,98480.41
2023-02-03T05:04:50.020Z,98478.09
2023-02-03T05:07:17.001Z,98473.00
2023-02-03T05:09:43.641Z,98479.16
2023-02-03T05:12:10.323Z,98484.53
2023-02-03T05:14:38.480Z,98483.38
2023-02-03T05:17:05.158Z,98490.91
2023-02-03T05:19:31.850Z,98489.53
2023-02-03T05:22:02.350Z,98486.88
2023-02-03T05:24:29.060Z,98493.44
2023-02-03T05:26:55.826Z,98498.09
2023-02-03T05:29:22.531Z,98499.59
2023-02-03T05:31:50.204Z,98503.75
2023-02-03T05:34:17.008Z,98502.56
2023-02-03T05:36:43.646Z,98492.91
2023-02-03T05:39:10.290Z,98479.00
2023-02-03T05:41:36.964Z,98479.34
2023-02-03T05:44:04.165Z,98482.44
2023-02-03T05:46:30.806Z,98480.19
2023-02-03T05:48:57.465Z,98484.28
2023-02-03T05:51:24.125Z,98471.88
2023-02-03T05:53:50.768Z,98488.56
2023-02-03T05:56:17.568Z,98491.00
2023-02-03T05:58:44.199Z,98491.00
2023-02-03T06:01:10.832Z,98485.56
2023-02-03T06:03:37.599Z,98486.28
2023-02-03T06:06:04.247Z,98493.06
2023-02-03T06:08:30.916Z,98493.50
2023-02-03T06:10:58.689Z,98491.22
2023-02-03T06:13:25.325Z,98494.94
2023-02-03T06:15:51.947Z,98511.97
2023-02-03T06:18:18.596Z,98510.81
2023-02-03T06:20:45.662Z,98524.50
2023-02-03T06:23:12.283Z,98534.63
2023-02-03T06:25:39.009Z,98547.34
2023-02-03T06:28:05.728Z,98554.50
2023-02-03T06:30:32.448Z,98569.84
2023-02-03T06:32:59.109Z,98558.69
2023-02-03T06:35:25.762Z,98558.78
2023-02-03T06:37:52.397Z,98561.44
2023-02-03T06:40:19.028Z,98554.53
2023-02-03T06:42:46.570Z,98556.91
2023-02-03T06:45:13.331Z,98560.97
2023-02-03T06:47:41.204Z,98557.19
2023-02-03T06:50:08.407Z,98559.28
2023-02-03T06:52:35.029Z,98551.94
2023-02-03T06:55:01.687Z,98546.09
2023-02-03T06:57:28.348Z,98554.34
2023-02-03T06:59:55.022Z,98565.47
2023-02-03T07:02:21.725Z,98575.31
2023-02-03T07:04:48.391Z,98578.34
2023-02-03T07:07:15.076Z,98568.69
2023-02-03T07:09:42.196Z,98559.81
2023-02-03T07:12:08.921Z,98558.38
2023-02-03T07:14:35.559Z,98557.41
2023-02-03T07:17:02.819Z,98567.06
2023-02-03T07:19:29.470Z,98571.72
2023-02-03T07:21:56.170Z,98563.91
2023-02-03T07:24:22.818Z,98551.84
2023-02-03T07:26:49.428Z,98542.06
2023-02-03T07:29:16.091Z,98541.31
2023-02-03T07:31:42.829Z,98536.44
2023-02-03T07:34:09.536Z,98553.00
2023-02-03T07:36:36.182Z,98546.88
2023-02-03T07:39:02.928Z,98546.47
2023-02-03T07:41:29.576Z,98541.13
2023-02-03T07:43:56.216Z,98545.94
2023-02-03T07:46:22.871Z,98548.41
2023-02-03T07:48:49.905Z,98547.31
2023-02-03T07:51:16.553Z,98568.03
2023-02-03T07:53:43.213Z,98573.41
2023-02-03T07:56:09.882Z,98587.34
2023-02-03T07:58:36.516Z,98594.47
2023-02-03T08:01:12.875Z,98601.94
2023-02-03T08:03:40.049Z,98602.28
2023-02-03T08:06:07.064Z,98600.06
2023-02-03T08:08:33.681Z,98591.91
2023-02-03T08:11:00.306Z,98592.75
2023-02-03T08:13:26.937Z,98585.69
2023-02-03T08:15:53.568Z,98586.28
2023-02-03T08:18:20.182Z,98568.72
2023-02-03T08:20:47.409Z,98562.00
2023-02-03T08:23:14.059Z,98575.06
2023-02-03T08:25:40.689Z,98580.81
2023-02-03T08:28:07.595Z,98579.38
2023-02-03T08:30:34.324Z,98589.66
2023-02-03T08:33:00.999Z,98590.59
2023-02-03T08:35:27.670Z,98586.09
2023-02-03T08:37:54.326Z,98578.72
2023-02-03T08:40:20.944Z,98575.00
2023-02-03T08:42:47.596Z,98582.94
2023-02-03T08:45:14.253Z,98587.59
2023-02-03T08:47:40.952Z,98602.66
2023-02-03T08:50:08.054Z,98602.75
2023-02-03T08:52:34.721Z,98597.84
2023-02-03T08:55:01.392Z,98586.50
2023-02-03T08:57:28.041Z,98587.31
2023-02-03T08:59:54.656Z,98599.41
2023-02-03T09:02:21.338Z,98598.06
2023-02-03T09:04:48.006Z,98599.06
2023-02-03T09:07:14.698Z,98605.06
2023-02-03T09:09:41.326Z,98604.66
2023-02-03T09:12:08.095Z,98606.41
2023-02-03T09:14:35.072Z,98611.47
2023-02-03T09:17:02.088Z,98610.69
2023-02-03T09:19:28.843Z,98617.50
2023-02-03T09:21:55.491Z,98621.47
2023-02-03T09:24:22.215Z,98613.16
2023-02-03T09:26:48.888Z,98615.44
2023-02-03T09:29:15.517Z,98606.19
2023-02-03T09:31:42.183Z,98605.34
2023-02-03T09:34:09.101Z,98603.97
2023-02-03T09:36:35.825Z,98602.31
2023-02-03T09:39:02.505Z,98612.94
2023-02-03T09:41:54.163Z,98610.00
2023-02-03T09:44:44.260Z,98600.72
2023-02-03T09:47:20.139Z,98604.81
2023-02-03T09:49:57.106Z,98602.31
2023-02-03T09:52:26.060Z,98608.59
2023-02-03T09:54:55.466Z,98602.53
2023-02-03T09:57:24.105Z,98600.63
2023-02-03T09:59:50.776Z,98606.34
2023-02-03T10:02:40.013Z,98606.53
2023-02-03T10:05:18.425Z,98608.41
2023-02-03T10:08:20.111Z,98606.59
2023-02-03T10:11:15.166Z,98601.06
2023-02-03T10:14:03.367Z,98605.50
2023-02-03T10:16:48.797Z,98609.25
2023-02-03T10:19:24.486Z,98606.03
2023-02-03T10:21:58.582Z,98604.13
2023-02-03T10:24:42.320Z,98598.03
2023-02-03T10:27:16.361Z,98597.41
2023-02-03T10:29:43.064Z,98598.75
2023-02-03T10:32:10.672Z,98583.13
2023-02-03T10:34:37.403Z,98584.94
2023-02-03T10:37:16.068Z,98594.13
2023-02-03T10:39:49.774Z,98593.69
2023-02-03T10:42:16.412Z,98591.75
2023-02-03T10:44:48.111Z,98585.06
2023-02-03T10:47:24.157Z,98580.00
2023-02-03T10:49:51.211Z,98570.31
2023-02-03T10:52:36.126Z,98567.88
2023-02-03T10:55:07.110Z,98568.00
2023-02-03T10:57:36.109Z,98560.56
2023-02-03T11:00:23.356Z,98557.31
2023-02-03T11:03:01.685Z,98552.03
2023-02-03T11:05:28.381Z,98550.31
2023-02-03T11:07:55.605Z,98541.88
2023-02-03T11:10:29.085Z,98537.28
2023-02-03T11:13:10.615Z,98549.81
2023-02-03T11:15:37.260Z,98544.81
2023-02-03T11:18:03.914Z,98537.84
2023-02-03T11:20:30.877Z,98538.88
2023-02-03T11:23:05.050Z,98540.13
2023-02-03T11:25:32.525Z,98547.53
2023-02-03T11:28:03.845Z,98539.09
2023-02-03T11:30:30.952Z,98540.22
2023-02-03T11:33:00.632Z,98544.03
2023-02-03T11:35:28.150Z,98546.63
2023-02-03T11:37:55.991Z,98539.03
2023-02-03T11:40:29.606Z,98541.28
2023-02-03T11:42:56.427Z,98521.31
2023-02-03T11:45:39.707Z,98524.69
2023-02-03T11:48:14.615Z,98525.81
2023-02-03T11:50:53.622Z,98524.84
2023-02-03T11:53:27.321Z,98512.94
2023-02-03T11:56:09.074Z,98528.00
2023-02-03T11:58:46.396Z,98520.28
2023-02-03T12:01:25.542Z,98521.03
2023-02-03T12:04:20.165Z,98528.28
2023-02-03T12:07:01.759Z,98522.66
2023-02-03T12:09:50.744Z,98516.75
2023-02-03T12:12:41.509Z,98514.28
2023-02-03T12:15:30.522Z,98503.28
2023-02-03T12:18:07.137Z,98497.66
2023-02-03T12:20:47.043Z,98502.59
2023-02-03T12:23:25.419Z,98496.41
2023-02-03T12:26:06.994Z,98500.66
2023-02-03T12:29:04.674Z,98501.13
2023-02-03T12:31:53.753Z,98503.81
2023-02-03T12:34:31.801Z,98499.78
2023-02-03T12:37:06.767Z,98492.34
2023-02-03T12:39:46.922Z,98494.81
2023-02-03T12:42:45.177Z,98483.78
2023-02-03T12:45:14.167Z,98476.13
2023-02-03T12:47:43.559Z,98469.84
2023-02-03T12:50:17.159Z,98476.31
2023-02-03T12:52:52.869Z,98476.94
2023-02-03T12:55:28.397Z,98480.25
2023-02-03T12:57:58.299Z,98477.44
2023-02-03T13:00:37.520Z,98466.31
2023-02-03T13:03:29.019Z,98458.03
2023-02-03T13:06:04.573Z,98446.78
2023-02-03T13:08:39.280Z,98450.28
2023-02-03T13:11:15.521Z,98447.94
2023-02-03T13:14:11.676Z,98436.75
2023-02-03T13:16:40.732Z,98440.03
2023-02-03T13:19:11.406Z,98430.44
2023-02-03T13:21:38.106Z,98419.59
2023-02-03T13:24:04.952Z,98409.88
2023-02-03T13:26:50.192Z,98417.69
2023-02-03T13:29:38.355Z,98420.94
2023-02-03T13:32:14.230Z,98420.38
2023-02-03T13:34:52.178Z,98423.88
2023-02-03T13:37:37.284Z,98420.38
2023-02-03T13:40:34.754Z,98422.44
2023-02-03T13:43:03.549Z,98410.91
2023-02-03T13:45:32.656Z,98411.88
2023-02-03T13:48:08.144Z,98411.50
2023-02-03T13:50:34.793Z,98424.28
2023-02-03T13:53:06.541Z,98427.53
2023-02-03T13:55:39.591Z,98426.13
2023-02-03T13:58:08.051Z,98436.97
2023-02-03T14:00:43.800Z,98416.00
2023-02-03T14:03:26.086Z,98410.38
2023-02-03T14:05:53.200Z,98405.75
2023-02-03T14:08:25.558Z,98405.63
2023-02-03T14:11:29.619Z,98406.06
2023-02-03T14:14:08.263Z,98400.44
2023-02-03T14:16:55.202Z,98405.38
2023-02-03T14:19:21.982Z,98412.41
2023-02-03T14:21:53.004Z,98421.56
2023-02-03T14:24:19.628Z,98422.13
2023-02-03T14:26:47.939Z,98412.28
2023-02-03T14:29:34.798Z,98415.63
2023-02-03T14:32:11.774Z,98411.28
2023-02-03T14:34:45.289Z,98418.00
2023-02-03T14:37:12.820Z,98422.66
2023-02-03T14:39:56.530Z,98415.75
2023-02-03T14:42:53.880Z,98424.50
2023-02-03T14:45:47.359Z,98427.53
2023-02-03T14:48:50.138Z,98421.25
2023-02-03T14:51:19.600Z,98421.91
2023-02-03T14:53:46.107Z,98412.16
2023-02-03T14:56:31.297Z,98406.38
2023-02-03T14:59:02.812Z,98396.66
2023-02-03T15:01:35.529Z,98401.28
2023-02-03T15:04:20.685Z,98398.19
2023-02-03T15:06:49.018Z,98391.28
2023-02-03T15:09:26.289Z,98390.88
2023-02-03T15:11:52.937Z,98382.28
2023-02-03T15:14:26.743Z,98388.34
2023-02-03T15:17:10.593Z,98380.25
2023-02-03T15:19:40.787Z,98376.72
2023-02-03T15:22:24.639Z,98374.63
2023-02-03T15:24:52.192Z,98362.53
2023-02-03T15:27:27.099Z,98362.03
2023-02-03T15:29:53.972Z,98363.97
2023-02-03T15:32:29.002Z,98360.38
2023-02-03T15:34:55.756Z,98372.84
2023-02-03T15:37:47.715Z,98364.91
2023-02-03T15:40:19.072Z,98363.16
2023-02-03T15:42:54.578Z,98353.41
2023-02-03T15:45:34.724Z,98352.63
2023-02-03T15:48:17.367Z,98362.47
2023-02-03T15:50:59.939Z,98376.03
2023-02-03T15:53:45.294Z,98375.19
2023-02-03T15:56:19.423Z,98373.88
2023-02-03T15:58:46.067Z,98371.16
2023-02-03T16:01:13.642Z,98367.41
2023-02-03T16:03:44.185Z,98372.03
2023-02-03T16:06:33.664Z,98374.72
2023-02-03T16:09:00.335Z,98383.75
2023-02-03T16:11:35.820Z,98384.09
2023-02-03T16:14:05.659Z,98380.47
2023-02-03T16:16:38.194Z,98384.38
2023-02-03T16:19:06.724Z,98387.66
2023-02-03T16:21:35.053Z,98387.06
2023-02-03T16:24:02.832Z,98388.19
2023-02-03T16:26:30.817Z,98392.19
2023-02-03T16:29:09.571Z,98400.31
2023-02-03T16:31:36.358Z,98393.53
2023-02-03T16:34:15.588Z,98394.88
2023-02-03T16:36:43.241Z,98389.53
2023-02-03T16:39:11.471Z,98395.84
2023-02-03T16:41:38.166Z,98399.75
2023-02-03T16:44:04.871Z,98406.78
2023-02-03T16:46:31.515Z,98415.13
2023-02-03T16:48:58.181Z,98425.69
2023-02-03T16:51:24.919Z,98426.31
2023-02-03T16:53:51.631Z,98421.00
2023-02-03T16:56:18.584Z,98420.50
2023-02-03T16:58:45.219Z,98429.44
2023-02-03T17:01:11.910Z,98423.75
2023-02-03T17:03:38.687Z,98428.94
2023-02-03T17:06:09.212Z,98437.50
2023-02-03T17:08:35.896Z,98445.13
2023-02-03T17:11:07.358Z,98438.31
2023-02-03T17:13:34.061Z,98444.00
2023-02-03T17:16:00.888Z,98446.78
2023-02-03T17:18:27.628Z,98443.50
2023-02-03T17:20:54.267Z,98450.69
2023-02-03T17:23:20.936Z,98447.00
2023-02-03T17:25:48.512Z,98459.59
2023-02-03T17:28:15.236Z,98459.09
2023-02-03T17:30:42.105Z,98460.28
2023-02-03T17:33:08.946Z,98464.41
2023-02-03T17:35:35.623Z,98468.88
2023-02-03T17:38:02.265Z,98465.25
2023-02-03T17:54:11.780Z,98469.50
2023-02-03T17:56:38.458Z,98466.78
2023-02-03T17:59:05.322Z,98476.91
2023-02-03T18:01:32.073Z,98472.31
2023-02-03T18:03:59.889Z,98470.31
2023-02-03T18:06:27.583Z,98480.94
2023-02-03T18:08:54.488Z,98468.50
2023-02-03T18:11:21.744Z,98467.78
2023-02-03T18:13:48.815Z,98470.00
2023-02-03T18:16:20.555Z,98474.28
2023-02-03T18:18:47.280Z,98466.13
2023-02-03T18:21:15.070Z,98469.00
2023-02-03T18:23:42.151Z,98466.44
2023-02-03T18:26:10.044Z,98459.06
2023-02-03T18:28:36.805Z,98461.50
2023-02-03T18:31:05.191Z,98473.56
2023-02-03T18:33:32.064Z,98475.78
2023-02-03T18:35:58.897Z,98482.31
2023-02-03T18:38:30.155Z,98484.66
2023-02-03T18:40:56.928Z,98473.47
2023-02-03T18:43:23.572Z,98471.91
2023-02-03T18:45:50.242Z,98469.59
2023-02-03T18:48:16.965Z,98464.03
2023-02-03T18:50:43.801Z,98448.84
2023-02-03T18:53:10.696Z,98451.91
2023-02-03T18:55:41.624Z,98461.63
2023-02-03T18:58:08.339Z,98467.00
2023-02-03T19:00:35.025Z,98473.00
2023-02-03T19:03:01.715Z,98465.56
2023-02-03T19:05:28.373Z,98464.50
2023-02-03T19:07:55.062Z,98470.34
2023-02-03T19:10:21.708Z,98468.75
2023-02-03T19:12:48.340Z,98467.59
2023-02-03T19:15:15.122Z,98465.69
2023-02-03T19:17:41.763Z,98469.94
2023-02-03T19:20:09.029Z,98471.19
2023-02-03T19:22:35.688Z,98481.28
2023-02-03T19:25:02.450Z,98476.94
2023-02-03T19:27:29.101Z,98469.38
2023-02-03T19:29:56.729Z,98467.69
2023-02-03T19:32:23.459Z,98463.22
2023-02-03T19:34:50.110Z,98466.41
2023-02-03T19:37:16.801Z,98467.69
2023-02-03T19:39:43.436Z,98450.69
2023-02-03T19:42:10.114Z,98453.03
2023-02-03T19:44:36.801Z,98456.41
2023-02-03T19:47:03.746Z,98452.19
2023-02-03T19:49:30.582Z,98455.69
2023-02-03T19:51:57.291Z,98451.66
2023-02-03T19:54:24.390Z,98452.19
2023-02-03T19:56:54.292Z,98461.94
2023-02-03T19:59:20.957Z,98465.66
2023-02-03T20:01:47.878Z,98461.75
2023-02-03T20:04:14.575Z,98458.25
2023-02-03T20:06:41.251Z,98454.84
2023-02-03T20:09:07.919Z,98460.91
2023-02-03T20:11:34.537Z,98469.59
2023-02-03T20:14:01.154Z,98468.66
2023-02-03T20:16:27.844Z,98469.72
2023-02-03T20:18:54.552Z,98470.44
2023-02-03T20:21:21.187Z,98477.34
2023-02-03T20:23:47.813Z,98461.63
2023-02-03T20:26:14.494Z,98462.38
2023-02-03T20:28:41.156Z,98462.72
2023-02-03T20:31:08.027Z,98470.00
2023-02-03T20:33:34.750Z,98470.34
2023-02-03T20:36:01.381Z,98472.59
2023-02-03T20:38:28.051Z,98462.91
2023-02-03T20:40:54.733Z,98472.88
2023-02-03T20:43:23.384Z,98473.00
2023-02-03T20:45:50.104Z,98468.53
2023-02-03T20:48:17.352Z,98469.16
2023-02-03T20:50:44.467Z,98475.53
2023-02-03T20:53:21.120Z,98476.50
2023-02-03T20:55:48.085Z,98480.97
2023-02-03T20:58:21.650Z,98483.72
2023-02-03T21:00:48.331Z,98480.41
2023-02-03T21:03:15.485Z,98486.78
2023-02-03T21:05:43.085Z,98476.00
2023-02-03T21:08:14.458Z,98473.53
2023-02-03T21:10:41.077Z,98475.09
2023-02-03T21:13:23.100Z,98481.28
2023-02-03T21:15:50.840Z,98483.50
2023-02-03T21:18:52.611Z,98487.97
2023-02-03T21:21:45.214Z,98482.44
2023-02-03T21:24:27.719Z,98484.34
2023-02-03T21:26:54.416Z,98489.03
2023-02-03T21:29:23.744Z,98483.72
2023-02-03T21:31:50.441Z,98484.66
2023-02-03T21:34:32.894Z,98481.16
2023-02-03T21:37:07.799Z,98480.63
2023-02-03T21:39:34.506Z,98482.00
2023-02-03T21:42:23.467Z,98470.88
2023-02-03T21:44:50.101Z,98484.25
2023-02-03T21:47:18.084Z,98487.00
2023-02-03T21:49:44.733Z,98489.66
2023-02-03T21:52:14.505Z,98486.16
2023-02-03T21:54:41.590Z,98478.19
2023-02-03T21:57:12.767Z,98487.97
2023-02-03T21:59:39.910Z,98481.44
2023-02-03T22:02:40.300Z,98489.75
2023-02-03T22:05:15.284Z,98491.31
2023-02-03T22:07:42.025Z,98492.59
2023-02-03T22:10:09.044Z,98492.53
2023-02-03T22:12:35.721Z,98484.84
2023-02-03T22:15:02.349Z,98488.78
2023-02-03T22:17:29.008Z,98481.00
2023-02-03T22:19:55.734Z,98477.50
2023-02-03T22:22:22.362Z,98483.25
2023-02-03T22:24:49.139Z,98485.31
2023-02-03T22:27:15.767Z,98483.72
2023-02-03T22:29:42.484Z,98482.44
2023-02-03T22:32:09.132Z,98483.66
2023-02-03T22:34:35.796Z,98481.56
2023-02-03T22:37:02.439Z,98481.03
2023-02-03T22:39:29.274Z,98491.53
2023-02-03T22:41:55.900Z,98488.94
2023-02-03T22:44:22.534Z,98488.09
2023-02-03T22:46:49.208Z,98492.91
2023-02-03T22:49:17.851Z,98491.53
2023-02-03T22:51:45.437Z,98487.81
2023-02-03T22:54:13.036Z,98486.34
2023-02-03T22:56:40.870Z,98488.88
2023-02-03T22:59:07.528Z,98493.06
2023-02-03T23:01:34.811Z,98490.31
2023-02-03T23:04:02.424Z,98506.47
2023-02-03T23:06:31.015Z,98500.91
2023-02-03T23:08:58.832Z,98499.03
2023-02-03T23:11:26.221Z,98505.44
2023-02-03T23:13:53.840Z,98508.47
2023-02-03T23:16:21.417Z,98506.47
2023-02-03T23:18:48.160Z,98510.06
2023-02-03T23:21:14.829Z,98515.25
2023-02-03T23:23:43.196Z,98521.56
2023-02-03T23:26:10.780Z,98507.38
2023-02-03T23:28:38.386Z,98509.06
2023-02-03T23:31:06.122Z,98507.44
2023-02-03T23:33:33.580Z,98500.38
2023-02-03T23:36:01.170Z,98506.75
2023-02-03T23:38:28.626Z,98518.50
2023-02-03T23:40:56.363Z,98519.25
2023-02-03T23:43:23.023Z,98523.13
2023-02-03T23:45:49.776Z,98524.16
2023-02-03T23:48:18.147Z,98515.72
2023-02-03T23:50:45.736Z,98521.97
2023-02-03T23:53:13.342Z,98523.06
2023-02-03T23:55:40.929Z,98531.13
2023-02-03T23:58:09.508Z,98526.69
